CZSJ

Sandy Lake Airport

Sandy Lake, Ontario, Canada
METAR CZSJ 201500Z AUTO 10004KT 9SM OVC080 M23/M28 A3016 RMK SLP253
Observed Flight Rules
Feb-20 @ 15:00 UTC (22 hours ago) Visual Flight Rules
Wind Visibility Clouds
100° at 4 knots 9 miles
  • Overcast at 8,000' AGL
Temperatures Readings
Current -23°C / -9°F
Dewpoint -28°C / -18°F
Humidity 64%
Altimeter 30.16" Hg
Pressure 1025.3 hPa
Elevation 290
METAR CZSJ 201500Z AUTO 10004KT 9SM OVC080 M23/M28 A3016 RMK SLP253
Observed Flight Rules
Feb-20 @ 15:00 UTC
(22 hours ago)
VFR
Wind Visibility
100° at 4 knots 9 miles
Clouds
  • Overcast at 8,000' AGL
Temperature Dewpoint
-23°C / -9°F -28°C / -18°F
Humidity Altimeter Pressure
64% 30.16" Hg 1025.3 hPa